Terminal Aerodrome Forecast
Issued by NWS Oklahoma City, OK

Home | Current Version | Previous Version | Text Only | Print | Product List | Glossary On
Versions: 1 2 3 4 5 6 7 8 9 10 11 12
000
FTUS44 KOUN 211730
TAFOUN
TAF
KOUN 211730Z 2118/2218 34009KT P6SM BKN150
     FM212000 01017G29KT P6SM SCT150 SCT250
     FM220400 01012KT P6SM SKC
     FM221200 01006KT P6SM SKC=

USA.gov is the U.S. government's official web portal to all federal, state and local government web resources and services.